Time;durP1;ratioP1;P1;durP2;ratioP2;P2;SDS_P1;SDS_P2;PMS_P1;PMS_P2;Temp;Humidity;BMP_temperature;BMP_pressure;BME280_temperature;BME280_humidity;BME280_pressure;Samples;Min_cycle;Max_cycle;Signal;HPM_P1;HPM_P2
2022/01/05 00:01:31;;;;;;;12.55;6.72;;;18.10;25.60;;;;;;5108668;28;20187;-62
2022/01/05 00:03:57;;;;;;;15.98;7.65;;;18.10;26.50;;;;;;5090929;28;20119;-61
2022/01/05 00:06:23;;;;;;;13.75;7.22;;;18.00;26.60;;;;;;5093415;28;20117;-62
2022/01/05 00:08:49;;;;;;;;;;;18.00;26.00;;;;;;5092115;28;20437;-60
2022/01/05 00:11:16;;;;;;;14.23;7.88;;;17.90;26.50;;;;;;5091131;28;19972;-61
2022/01/05 00:13:43;;;;;;;;;;;17.80;27.40;;;;;;5092896;28;20079;-63
2022/01/05 00:16:09;;;;;;;15.63;6.50;;;17.70;27.00;;;;;;5109976;28;19976;-60
2022/01/05 00:18:36;;;;;;;16.75;6.75;;;17.60;27.00;;;;;;5089846;28;20084;-62
2022/01/05 00:21:04;;;;;;;16.88;6.55;;;17.50;26.70;;;;;;5091847;28;20091;-62
2022/01/05 00:23:31;;;;;;;14.57;6.45;;;17.40;27.50;;;;;;5090496;28;20129;-62
2022/01/05 00:25:59;;;;;;;17.40;7.63;;;17.30;28.60;;;;;;5092315;28;20095;-61
2022/01/05 00:28:26;;;;;;;13.93;6.78;;;17.30;29.10;;;;;;5092535;28;20072;-62
2022/01/05 00:30:52;;;;;;;15.32;7.30;;;17.20;29.30;;;;;;5091274;28;20141;-64
2022/01/05 00:33:18;;;;;;;14.35;7.40;;;17.10;29.20;;;;;;5091540;28;20145;-63
2022/01/05 00:35:44;;;;;;;;;;;17.10;28.90;;;;;;5090987;28;20076;-61
2022/01/05 00:38:11;;;;;;;15.75;6.72;;;16.90;28.30;;;;;;5091890;28;20009;-64
2022/01/05 00:40:37;;;;;;;21.33;7.78;;;16.80;29.50;;;;;;5091407;28;20079;-66
2022/01/05 00:43:04;;;;;;;15.27;7.75;;;16.70;29.80;;;;;;5085256;28;20076;-64
2022/01/05 00:45:30;;;;;;;16.02;7.53;;;16.60;31.30;;;;;;5108354;28;20083;-62
2022/01/05 00:47:56;;;;;;;;;;;16.50;32.10;;;;;;5092105;28;20311;-61
2022/01/05 00:50:23;;;;;;;17.23;7.88;;;16.40;33.10;;;;;;5091487;28;20029;-63
2022/01/05 00:52:49;;;;;;;;;;;16.20;32.70;;;;;;5095773;28;20080;-64
2022/01/05 00:55:15;;;;;;;33.70;8.63;;;16.10;32.30;;;;;;5092989;28;19960;-62
2022/01/05 00:57:41;;;;;;;;;;;16.00;34.60;;;;;;5093419;28;20503;-63
2022/01/05 01:00:08;;;;;;;25.30;8.07;;;15.90;34.70;;;;;;5093866;28;20062;-61
2022/01/05 01:02:35;;;;;;;55.95;10.15;;;15.80;32.50;;;;;;5094154;28;20088;-63
2022/01/05 01:05:01;;;;;;;;;;;15.60;34.90;;;;;;5095088;28;20116;-61
2022/01/05 01:07:27;;;;;;;49.22;9.18;;;15.50;34.30;;;;;;5092686;28;19956;-61
2022/01/05 01:09:53;;;;;;;;;;;15.30;34.80;;;;;;5094218;28;20171;-59
2022/01/05 01:12:20;;;;;;;106.97;11.75;;;15.20;35.40;;;;;;5075386;28;19960;-60
2022/01/05 01:14:46;;;;;;;;;;;15.10;36.00;;;;;;5113402;28;20483;-62
2022/01/05 01:17:12;;;;;;;61.78;10.23;;;15.00;36.90;;;;;;5112454;28;19956;-62
2022/01/05 01:19:39;;;;;;;51.55;10.57;;;14.90;37.40;;;;;;5094194;28;20083;-61
2022/01/05 01:22:05;;;;;;;;;;;14.80;38.30;;;;;;5095012;28;20136;-61
2022/01/05 01:24:31;;;;;;;51.70;11.48;;;14.70;38.50;;;;;;5112830;28;20462;-62
2022/01/05 01:26:58;;;;;;;39.17;9.70;;;14.50;39.30;;;;;;5070925;23;20125;-61
2022/01/05 01:29:24;;;;;;;41.33;10.13;;;14.50;39.10;;;;;;5012117;28;20525;-62
2022/01/05 01:31:52;;;;;;;;;;;14.30;38.80;;;;;;5011284;28;20083;-63
2022/01/05 01:34:18;;;;;;;58.65;11.40;;;14.30;39.50;;;;;;5011020;28;19980;-60
2022/01/05 01:36:44;;;;;;;;;;;14.20;39.90;;;;;;5011144;28;20074;-62
2022/01/05 01:39:11;;;;;;;41.95;11.10;;;14.20;40.40;;;;;;5027032;28;20097;-62
2022/01/05 01:41:37;;;;;;;;;;;14.10;40.50;;;;;;5011012;28;20094;-63
2022/01/05 01:44:03;;;;;;;47.00;13.68;;;14.00;40.60;;;;;;5026421;28;19964;-63
2022/01/05 01:46:30;;;;;;;52.92;14.70;;;13.90;41.80;;;;;;5008535;28;20074;-62
2022/01/05 01:48:56;;;;;;;37.08;13.25;;;13.70;42.30;;;;;;5010913;28;20081;-63
2022/01/05 01:51:22;;;;;;;;;;;13.70;42.60;;;;;;5010260;28;20094;-61
2022/01/05 01:53:49;;;;;;;42.40;15.05;;;13.60;42.40;;;;;;5025812;28;19958;-61
2022/01/05 01:56:16;;;;;;;44.13;13.95;;;13.50;42.30;;;;;;5009184;28;20086;-62
2022/01/05 01:58:45;;;;;;;40.22;14.23;;;13.40;42.80;;;;;;5028641;23;20086;-63
2022/01/05 02:01:13;;;;;;;42.38;14.77;;;13.40;44.10;;;;;;4977153;28;20098;-63
2022/01/05 02:03:39;;;;;;;42.45;13.38;;;13.30;43.40;;;;;;4982098;28;20086;-62
2022/01/05 02:06:06;;;;;;;37.92;13.68;;;13.30;43.80;;;;;;4982507;28;20110;-64
2022/01/05 02:08:33;;;;;;;;;;;13.10;43.00;;;;;;5002686;28;20098;-64
2022/01/05 02:11:00;;;;;;;41.13;13.30;;;13.10;43.50;;;;;;4978890;28;19964;-58
2022/01/05 02:13:26;;;;;;;37.08;14.27;;;13.00;43.80;;;;;;4981166;28;20071;-65
2022/01/05 02:15:52;;;;;;;;;;;12.90;44.40;;;;;;4997491;28;20095;-65
2022/01/05 02:18:58;;;;;;;45.67;14.32;;;13.00;44.20;;;;;;4983372;28;19973;-62
2022/01/05 02:21:14;;;;;;;40.65;13.73;;;12.80;44.70;;;;;;4966160;28;20146;-62
2022/01/05 02:23:40;;;;;;;45.00;14.02;;;12.80;45.20;;;;;;4958200;28;20106;-63
2022/01/05 02:26:07;;;;;;;;;;;12.80;45.10;;;;;;4974797;28;20182;-65
2022/01/05 02:28:33;;;;;;;45.55;15.07;;;12.80;44.70;;;;;;4975319;28;19965;-64
2022/01/05 02:31:01;;;;;;;50.28;15.43;;;12.80;44.40;;;;;;4974342;28;20079;-64
2022/01/05 02:33:28;;;;;;;47.72;15.43;;;12.70;44.50;;;;;;4975535;28;20091;-63
2022/01/05 02:35:54;;;;;;;47.33;15.57;;;12.70;44.80;;;;;;4985683;28;20504;-64
2022/01/05 02:38:21;;;;;;;;;;;12.60;45.00;;;;;;4980165;28;20101;-66
2022/01/05 02:40:48;;;;;;;54.20;15.85;;;12.50;45.50;;;;;;4978667;28;19958;-66
2022/01/05 02:43:15;;;;;;;49.88;15.38;;;12.50;45.90;;;;;;4979355;28;20107;-64
2022/01/05 02:45:41;;;;;;;;;;;12.50;46.20;;;;;;4979470;28;20075;-64
2022/01/05 02:48:07;;;;;;;60.28;16.67;;;12.50;46.60;;;;;;4997932;28;20435;-65
2022/01/05 02:50:34;;;;;;;;;;;12.50;47.20;;;;;;4979387;28;20158;-64
2022/01/05 02:53:00;;;;;;;57.80;18.87;;;12.50;47.10;;;;;;4994408;28;20064;-65
2022/01/05 02:55:27;;;;;;;;;;;12.40;47.10;;;;;;4980209;28;20089;-63
2022/01/05 02:57:53;;;;;;;51.63;19.33;;;12.30;47.70;;;;;;4985556;28;20408;-64
2022/01/05 03:00:19;;;;;;;63.08;20.10;;;12.30;47.40;;;;;;4981284;28;20117;-63
2022/01/05 03:02:46;;;;;;;72.22;21.05;;;12.30;47.60;;;;;;4974714;28;20091;-63
2022/01/05 03:05:12;;;;;;;;;;;12.30;48.50;;;;;;4977389;28;20079;-64
2022/01/05 03:07:39;;;;;;;59.10;19.23;;;12.20;48.90;;;;;;4983268;28;19958;-64
2022/01/05 03:10:08;;;;;;;54.72;19.95;;;12.10;48.00;;;;;;4985225;28;20532;-64
2022/01/05 03:12:34;;;;;;;70.20;20.05;;;12.10;48.30;;;;;;4980350;28;20102;-59
2022/01/05 03:15:01;;;;;;;79.30;21.08;;;12.10;48.60;;;;;;4977610;28;20586;-64
2022/01/05 03:17:27;;;;;;;;;;;12.10;49.70;;;;;;4996193;28;20529;-64
2022/01/05 03:19:53;;;;;;;74.28;22.33;;;12.10;49.20;;;;;;4982349;28;19962;-64
2022/01/05 03:22:20;;;;;;;59.78;21.73;;;11.90;47.90;;;;;;4979181;28;20129;-64
2022/01/05 03:24:46;;;;;;;;;;;11.90;48.30;;;;;;4981303;28;20098;-66
2022/01/05 03:27:12;;;;;;;48.53;20.08;;;12.00;48.90;;;;;;4976880;28;19964;-64
2022/01/05 03:29:38;;;;;;;68.88;21.33;;;11.90;49.50;;;;;;4983055;28;20137;-64
2022/01/05 03:32:05;;;;;;;64.15;20.90;;;11.80;48.60;;;;;;4989909;28;20310;-64
2022/01/05 03:34:32;;;;;;;52.42;18.67;;;11.60;59.60;;;;;;4975633;28;20023;-63
2022/01/05 03:37:00;;;;;;;63.38;18.48;;;11.80;47.60;;;;;;4981925;28;20076;-63
2022/01/05 03:39:27;;;;;;;61.17;18.83;;;12.10;48.30;;;;;;4982799;28;20105;-65
2022/01/05 03:41:53;;;;;;;59.72;18.23;;;12.30;48.50;;;;;;4989730;28;20601;-61
2022/01/05 03:44:20;;;;;;;66.57;19.05;;;13.40;46.80;;;;;;4977001;28;20074;-63
2022/01/05 03:46:46;;;;;;;;;;;14.50;45.30;;;;;;4997881;28;20123;-63
2022/01/05 03:49:12;;;;;;;62.30;16.90;;;15.10;44.00;;;;;;4959293;28;20009;-60
2022/01/05 03:51:38;;;;;;;;;;;15.60;42.70;;;;;;4952748;28;20078;-62
2022/01/05 03:54:05;;;;;;;61.00;18.10;;;16.10;42.00;;;;;;4985252;28;19980;-61
2022/01/05 03:56:31;;;;;;;;;;;16.20;41.00;;;;;;4969209;28;20079;-62
2022/01/05 03:58:57;;;;;;;59.25;22.38;;;16.20;41.20;;;;;;4968205;28;19982;-63
2022/01/05 04:01:23;;;;;;;;;;;16.10;40.50;;;;;;4989740;28;20074;-63
2022/01/05 04:03:49;;;;;;;56.25;19.58;;;16.20;40.00;;;;;;4992363;28;20029;-60
2022/01/05 04:06:15;;;;;;;;;;;16.30;40.50;;;;;;5000956;28;20124;-62
2022/01/05 04:08:42;;;;;;;52.35;17.40;;;16.10;39.80;;;;;;4996763;28;20387;-62
2022/01/05 04:11:08;;;;;;;;;;;16.30;40.20;;;;;;4994037;28;20540;-63
2022/01/05 04:13:34;;;;;;;52.17;15.80;;;16.10;39.80;;;;;;4976252;28;20355;-61
2022/01/05 04:16:01;;;;;;;;;;;15.10;39.80;;;;;;4978774;28;20096;-62
2022/01/05 04:18:27;;;;;;;65.00;16.42;;;14.50;42.20;;;;;;4975167;28;19993;-61
2022/01/05 04:20:53;;;;;;;46.25;15.75;;;14.80;42.70;;;;;;4990093;28;20120;-60
2022/01/05 04:23:19;;;;;;;;;;;;;;;;;;4989346;28;20030;-61
2022/01/05 04:25:46;;;;;;;48.50;14.60;;;;;;;;;;4972836;28;20003;-60
2022/01/05 04:28:13;;;;;;;40.45;16.27;;;15.30;41.70;;;;;;4979991;28;20074;-64
2022/01/05 04:30:39;;;;;;;54.95;15.50;;;15.50;42.00;;;;;;4982796;28;20086;-62
2022/01/05 04:33:05;;;;;;;;;;;15.50;41.80;;;;;;4996617;28;20104;-62
2022/01/05 04:35:32;;;;;;;48.75;16.45;;;15.30;42.10;;;;;;4995365;28;20464;-62
2022/01/05 04:37:58;;;;;;;;;;;15.10;42.20;;;;;;4981583;28;20066;-64
2022/01/05 04:40:24;;;;;;;56.08;16.85;;;14.70;43.30;;;;;;4984851;28;19958;-62
2022/01/05 04:42:50;;;;;;;;;;;15.10;43.20;;;;;;4969888;28;20075;-62
2022/01/05 04:45:17;;;;;;;38.28;15.30;;;15.10;43.00;;;;;;4982327;28;19966;-62
2022/01/05 04:47:44;;;;;;;56.00;16.13;;;15.00;43.10;;;;;;4980474;28;20125;-62
2022/01/05 04:50:14;;;;;;;45.08;15.88;;;14.90;42.50;;;;;;5000482;28;20082;-61
2022/01/05 04:52:41;;;;;;;54.53;15.90;;;14.90;43.50;;;;;;4998670;28;20181;-62
2022/01/05 04:55:09;;;;;;;48.83;14.90;;;14.80;43.60;;;;;;4990122;28;20095;-60
2022/01/05 04:57:35;;;;;;;50.55;16.63;;;14.70;43.80;;;;;;4984352;28;20079;-62
2022/01/05 05:00:03;;;;;;;59.72;17.17;;;14.50;44.40;;;;;;4977427;28;20122;-62
2022/01/05 05:02:29;;;;;;;46.97;15.40;;;14.50;44.80;;;;;;4982735;28;20468;-61
2022/01/05 05:04:56;;;;;;;53.92;16.75;;;14.40;44.90;;;;;;4984947;28;20083;-61
2022/01/05 05:07:22;;;;;;;;;;;14.50;44.70;;;;;;4983275;28;20517;-64
2022/01/05 05:09:48;;;;;;;53.10;14.98;;;14.30;45.30;;;;;;4987392;28;19961;-62
2022/01/05 05:12:15;;;;;;;67.65;15.52;;;13.80;44.30;;;;;;4981775;28;20562;-63
2022/01/05 05:14:42;;;;;;;;;;;13.70;44.40;;;;;;4981368;28;20149;-62
2022/01/05 05:17:09;;;;;;;50.63;16.98;;;13.60;45.70;;;;;;4976605;28;19958;-61
2022/01/05 05:19:35;;;;;;;50.45;15.88;;;13.50;46.20;;;;;;4983074;28;20090;-61
2022/01/05 05:22:01;;;;;;;55.80;15.00;;;13.50;46.60;;;;;;4984959;28;20105;-61
2022/01/05 05:24:27;;;;;;;;;;;13.50;46.80;;;;;;4981459;28;20079;-61
2022/01/05 05:26:54;;;;;;;55.40;17.25;;;13.60;46.80;;;;;;4976956;28;19958;-61
2022/01/05 05:29:20;;;;;;;;;;;;;;;;;;4962936;28;20036;-60
2022/01/05 05:31:46;;;;;;;65.10;16.52;;;;;;;;;;4993835;28;19917;-62
2022/01/05 05:34:13;;;;;;;69.32;16.27;;;13.40;66.80;;;;;;4980240;28;20102;-61
2022/01/05 05:36:39;;;;;;;;;;;;;;;;;;4972124;28;20022;-61
2022/01/05 05:39:05;;;;;;;65.10;17.13;;;13.30;46.90;;;;;;5000688;28;19917;-60
2022/01/05 05:41:31;;;;;;;;;;;13.30;46.60;;;;;;4961896;28;20087;-59
2022/01/05 05:43:58;;;;;;;58.30;17.48;;;13.10;46.90;;;;;;4997788;28;19981;-59
2022/01/05 05:46:24;;;;;;;61.20;18.00;;;13.10;47.50;;;;;;4978290;28;20079;-62
2022/01/05 05:48:50;;;;;;;;;;;13.10;47.50;;;;;;4994205;28;20597;-63
2022/01/05 05:51:17;;;;;;;56.08;18.90;;;13.10;47.20;;;;;;4977147;28;19997;-61
2022/01/05 05:53:43;;;;;;;74.07;19.38;;;13.10;48.10;;;;;;4976208;28;20082;-61
2022/01/05 05:56:09;;;;;;;;;;;13.10;48.60;;;;;;4993898;28;20091;-62
2022/01/05 05:58:36;;;;;;;72.25;18.77;;;12.90;48.30;;;;;;4982684;28;19964;-62
2022/01/05 06:01:02;;;;;;;;;;;12.70;48.30;;;;;;4978829;28;20470;-62
2022/01/05 06:03:28;;;;;;;67.85;19.75;;;12.70;48.80;;;;;;4982046;28;19974;-61
2022/01/05 06:05:54;;;;;;;;;;;12.50;48.40;;;;;;4980772;28;20091;-63
2022/01/05 06:08:20;;;;;;;78.63;22.33;;;12.50;49.30;;;;;;4976065;28;20443;-63
2022/01/05 06:10:46;;;;;;;;;;;12.40;49.60;;;;;;4995196;28;20173;-64
2022/01/05 06:13:13;;;;;;;83.28;20.83;;;12.40;49.70;;;;;;4994140;28;20045;-63
2022/01/05 06:15:39;;;;;;;77.88;20.70;;;12.30;50.10;;;;;;4962698;28;20098;-61
2022/01/05 06:18:06;;;;;;;79.43;21.67;;;12.30;50.40;;;;;;4983413;28;20074;-62
2022/01/05 06:20:32;;;;;;;;;;;12.10;50.40;;;;;;5007398;28;20919;-63
2022/01/05 06:22:58;;;;;;;70.05;20.48;;;12.10;51.10;;;;;;4982441;28;20543;-63
2022/01/05 06:25:24;;;;;;;78.18;21.02;;;;;;;;;;4982084;28;20026;-62
2022/01/05 06:27:51;;;;;;;77.88;21.52;;;11.90;50.80;;;;;;4984251;28;20426;-59
2022/01/05 06:30:17;;;;;;;74.00;21.42;;;12.00;51.00;;;;;;4996545;28;20075;-63
2022/01/05 06:32:44;;;;;;;;;;;12.00;52.20;;;;;;4980009;28;20129;-64
2022/01/05 06:35:12;;;;;;;98.80;21.15;;;12.00;51.50;;;;;;4979675;28;20427;-63
2022/01/05 06:37:38;;;;;;;65.43;20.73;;;11.90;52.00;;;;;;4982226;28;20173;-62
2022/01/05 06:40:04;;;;;;;;;;;11.80;51.80;;;;;;4986508;28;20075;-62
2022/01/05 06:42:31;;;;;;;68.55;22.35;;;11.90;51.80;;;;;;4981682;28;19962;-63
2022/01/05 06:44:57;;;;;;;;;;;12.00;51.30;;;;;;4979835;28;20109;-63
2022/01/05 06:47:23;;;;;;;77.45;22.48;;;12.10;51.90;;;;;;4978225;28;19958;-63
2022/01/05 06:49:50;;;;;;;61.97;21.38;;;12.00;51.90;;;;;;4977135;28;20100;-62
2022/01/05 06:52:16;;;;;;;;;;;11.80;52.10;;;;;;4993945;28;20075;-63
2022/01/05 06:54:43;;;;;;;72.22;23.15;;;11.60;52.40;;;;;;4978998;28;19980;-61
2022/01/05 06:57:10;;;;;;;62.22;21.40;;;;;;;;;;4982882;28;20022;-60
2022/01/05 06:59:37;;;;;;;70.60;21.52;;;11.00;68.20;;;;;;4995813;28;20046;-61
2022/01/05 07:02:05;;;;;;;74.30;20.63;;;;;;;;;;4975855;28;20369;-62
2022/01/05 07:04:32;;;;;;;78.57;22.60;;;;;;;;;;4979576;28;20033;-63
2022/01/05 07:06:59;;;;;;;64.05;21.52;;;11.10;76.30;;;;;;4995971;28;20387;-62
2022/01/05 07:09:25;;;;;;;77.47;23.17;;;11.30;53.30;;;;;;4983366;28;20169;-61
2022/01/05 07:11:51;;;;;;;;;;;11.10;53.40;;;;;;4963687;28;20505;-60
2022/01/05 07:14:17;;;;;;;71.28;23.33;;;11.20;54.00;;;;;;4972534;28;20008;-62
2022/01/05 07:16:43;;;;;;;;;;;11.20;53.70;;;;;;4980992;28;20074;-62
2022/01/05 07:19:10;;;;;;;82.43;25.02;;;11.30;53.20;;;;;;4976009;28;20339;-62
2022/01/05 07:21:36;;;;;;;86.45;26.92;;;11.10;53.80;;;;;;4976405;28;20079;-64
2022/01/05 07:24:03;;;;;;;;;;;;;;;;;;4994397;28;20030;-60
2022/01/05 07:26:31;;;;;;;73.03;25.20;;;10.90;53.10;;;;;;4980580;28;19909;-60
2022/01/05 07:28:58;;;;;;;75.53;24.55;;;;;;;;;;4997721;28;20038;-62
2022/01/05 07:31:25;;;;;;;84.07;26.40;;;;;;;;;;4982014;28;20124;-63
2022/01/05 07:33:51;;;;;;;100.53;28.48;;;;;;;;;;4982920;28;20057;-61
2022/01/05 07:36:18;;;;;;;;;;;;;;;;;;4977079;28;20541;-61
2022/01/05 07:38:45;;;;;;;82.45;28.65;;;;;;;;;;4981469;28;19909;-60
2022/01/05 07:41:11;;;;;;;99.72;28.80;;;;;;;;;;4992178;28;20029;-62
2022/01/05 07:43:38;;;;;;;88.97;28.02;;;;;;;;;;4981387;28;20021;-60
2022/01/05 07:46:04;;;;;;;;;;;;;;;;;;4976135;28;20080;-61
2022/01/05 07:48:31;;;;;;;91.63;30.10;;;;;;;;;;4991782;28;19909;-62
2022/01/05 07:50:57;;;;;;;;;;;;;;;;;;4997973;28;20484;-61
2022/01/05 07:53:23;;;;;;;99.40;30.73;;;;;;;;;;4979860;28;20403;-62
2022/01/05 07:55:49;;;;;;;;;;;;;;;;;;4977638;28;20026;-62
2022/01/05 07:58:16;;;;;;;110.32;35.85;;;;;;;;;;4993425;28;20289;-62
2022/01/05 08:00:42;;;;;;;94.55;35.85;;;;;;;;;;4976681;28;20461;-63
2022/01/05 08:03:08;;;;;;;;;;;;;;;;;;4978112;28;20034;-62
2022/01/05 08:05:35;;;;;;;114.30;34.92;;;9.80;56.20;;;;;;4976359;28;20439;-64
2022/01/05 08:08:01;;;;;;;119.65;33.47;;;;;;;;;;4979074;28;20068;-62
2022/01/05 08:10:28;;;;;;;103.22;33.20;;;;;;;;;;4977269;28;20030;-60
